Terminal Aerodrome Forecast
Issued by NWS Sioux Falls, SD

Current Version | Previous Version | Text Only | Print | Product List | Glossary On
Versions: 1 2 3 4 5 6 7 8 9 10 11 12 13 14 15 16 17 18 19 20 21 22 23
340
FTUS43 KFSD 051724
TAFFSD
TAF
KFSD 051724Z 0518/0618 20013G20KT P6SM SCT140
     FM052100 26013G18KT P6SM BKN090
     FM060000 26009KT P6SM BKN025
     FM060200 28015G25KT P6SM BKN025
     FM060300 28017G27KT P6SM BKN040
     FM060500 28014G24KT P6SM SCT070
     FM060800 29017G27KT P6SM BKN040
     FM061400 29019G29KT P6SM BKN025
     FM061600 30021G29KT P6SM SCT025=

USA.gov is the U.S. government's official web portal to all federal, state and local government web resources and services.